Time;durP1;ratioP1;P1;durP2;ratioP2;P2;SDS_P1;SDS_P2;PMS_P1;PMS_P2;Temp;Humidity;BMP_temperature;BMP_pressure;BME280_temperature;BME280_humidity;BME280_pressure;Samples;Min_cycle;Max_cycle;Signal;HPM_P1;HPM_P2
2021/05/20 00:02:11;;;;;;;19.70;15.98;;;10.00;99.90;;;;;;5056084;28;20025;-79
2021/05/20 00:04:37;;;;;;;18.60;14.73;;;9.90;99.90;;;;;;5054853;28;20024;-79
2021/05/20 00:07:02;;;;;;;19.95;16.48;;;10.00;99.90;;;;;;5056341;28;20025;-79
2021/05/20 00:09:28;;;;;;;20.17;16.73;;;9.90;99.90;;;;;;5057471;28;20838;-79
2021/05/20 00:11:54;;;;;;;22.90;17.08;;;9.90;99.90;;;;;;5056520;28;20350;-79
2021/05/20 00:14:20;;;;;;;24.38;18.60;;;9.90;99.90;;;;;;5057715;28;20013;-79
2021/05/20 00:16:45;;;;;;;22.10;17.63;;;9.90;99.90;;;;;;5055547;28;20025;-79
2021/05/20 00:19:11;;;;;;;25.90;20.38;;;9.80;99.90;;;;;;5055700;28;20029;-79
2021/05/20 00:21:36;;;;;;;28.35;21.92;;;9.70;99.90;;;;;;5054787;28;20047;-79
2021/05/20 00:24:02;;;;;;;27.17;22.65;;;9.60;99.90;;;;;;5054665;28;20028;-79
2021/05/20 00:26:29;;;;;;;26.17;21.40;;;9.60;99.90;;;;;;5055087;28;20028;-79
2021/05/20 00:28:54;;;;;;;24.75;18.85;;;9.50;99.90;;;;;;5054856;28;20020;-79
2021/05/20 00:31:20;;;;;;;24.23;18.98;;;9.50;99.90;;;;;;5054750;28;20009;-79
2021/05/20 00:33:45;;;;;;;25.02;19.60;;;9.50;99.90;;;;;;5056631;28;20379;-79
2021/05/20 00:36:11;;;;;;;25.73;19.17;;;9.50;99.90;;;;;;5056138;28;20468;-79
2021/05/20 00:38:38;;;;;;;26.02;20.77;;;9.50;99.90;;;;;;5073142;28;20036;-79
2021/05/20 00:41:04;;;;;;;27.77;23.08;;;9.50;99.90;;;;;;5055430;28;20017;-79
2021/05/20 00:43:30;;;;;;;26.00;21.35;;;9.50;99.90;;;;;;5056023;28;20021;-79
2021/05/20 00:45:55;;;;;;;28.83;23.55;;;9.40;99.90;;;;;;5053206;28;20098;-79
2021/05/20 00:48:22;;;;;;;28.08;23.00;;;9.40;99.90;;;;;;5054255;28;20017;-79
2021/05/20 00:50:47;;;;;;;27.85;21.48;;;9.40;99.90;;;;;;5056416;28;20019;-79
2021/05/20 00:53:14;;;;;;;24.98;19.33;;;9.40;99.90;;;;;;5055867;28;20017;-79
2021/05/20 00:55:40;;;;;;;26.02;19.75;;;9.40;99.90;;;;;;5057020;28;20029;-79
2021/05/20 00:58:06;;;;;;;23.10;18.60;;;9.40;99.90;;;;;;5070186;28;20032;-79
2021/05/20 01:00:32;;;;;;;22.17;17.48;;;9.40;99.90;;;;;;5055682;28;20021;-79
2021/05/20 01:02:58;;;;;;;25.65;20.65;;;9.50;99.90;;;;;;5054301;28;20414;-79
2021/05/20 01:05:24;;;;;;;24.25;18.65;;;9.50;99.90;;;;;;5053983;28;20090;-79
2021/05/20 01:07:49;;;;;;;25.73;20.35;;;9.40;99.90;;;;;;5056011;28;20365;-79
2021/05/20 01:10:15;;;;;;;25.80;20.88;;;9.40;99.90;;;;;;5055784;28;20086;-79
2021/05/20 01:12:40;;;;;;;31.80;24.23;;;9.40;99.90;;;;;;5057019;28;20032;-79
2021/05/20 01:15:19;;;;;;;31.08;23.98;;;9.30;99.90;;;;;;5054784;28;20017;-79
2021/05/20 01:17:49;;;;;;;28.30;22.80;;;9.30;99.90;;;;;;5055477;28;20093;-79
2021/05/20 01:20:24;;;;;;;36.92;25.67;;;9.20;99.90;;;;;;5053876;28;20068;-79
2021/05/20 01:22:49;;;;;;;34.30;27.83;;;9.20;99.90;;;;;;5056700;28;20032;-79
2021/05/20 01:25:15;;;;;;;34.92;27.70;;;9.20;99.90;;;;;;5054157;28;20033;-79
2021/05/20 01:27:44;;;;;;;32.08;25.63;;;9.20;99.90;;;;;;5054105;28;20028;-79
2021/05/20 01:30:10;;;;;;;27.08;21.65;;;9.20;99.90;;;;;;5053358;28;20033;-79
2021/05/20 01:32:36;;;;;;;26.67;19.42;;;9.10;99.90;;;;;;5053352;28;20032;-79
2021/05/20 01:35:02;;;;;;;59.13;17.00;;;9.10;99.90;;;;;;5055278;28;20020;-79
2021/05/20 01:37:28;;;;;;;108.38;15.00;;;9.10;99.90;;;;;;5053657;28;20045;-79
2021/05/20 01:39:53;;;;;;;85.10;11.77;;;9.10;99.90;;;;;;5056081;28;20386;-79
2021/05/20 01:42:19;;;;;;;50.60;11.18;;;9.10;99.90;;;;;;5054031;28;20384;-79
2021/05/20 01:44:44;;;;;;;26.73;11.85;;;9.10;99.90;;;;;;5053841;28;20027;-79
2021/05/20 01:47:10;;;;;;;18.17;11.55;;;9.10;99.90;;;;;;5053695;28;20013;-79
2021/05/20 01:49:35;;;;;;;17.02;12.63;;;9.00;99.90;;;;;;5052946;28;20017;-79
2021/05/20 01:52:01;;;;;;;27.60;14.18;;;9.00;99.90;;;;;;5055088;28;20399;-79
2021/05/20 01:54:26;;;;;;;35.15;15.40;;;9.00;99.90;;;;;;5053450;28;20029;-79
2021/05/20 01:56:52;;;;;;;17.52;13.15;;;9.00;99.90;;;;;;5055888;28;20082;-79
2021/05/20 01:59:18;;;;;;;24.20;15.85;;;9.00;99.90;;;;;;5053857;28;20534;-79
2021/05/20 02:01:43;;;;;;;18.92;15.00;;;9.00;99.90;;;;;;5052356;28;20028;-79
2021/05/20 02:04:09;;;;;;;22.23;17.40;;;9.00;99.90;;;;;;5053753;28;20025;-79
2021/05/20 02:06:34;;;;;;;25.23;18.95;;;9.10;99.90;;;;;;5051510;28;20112;-79
2021/05/20 02:09:01;;;;;;;49.45;33.92;;;9.20;99.90;;;;;;5054927;28;20016;-79
2021/05/20 02:11:26;;;;;;;47.28;33.70;;;9.20;99.90;;;;;;5054365;28;20100;-79
2021/05/20 02:13:52;;;;;;;56.25;38.13;;;9.20;99.90;;;;;;5054484;28;20123;-79
2021/05/20 02:16:17;;;;;;;64.00;42.85;;;9.20;99.90;;;;;;5053661;28;20100;-79
2021/05/20 02:18:43;;;;;;;67.20;43.53;;;9.20;99.90;;;;;;5053374;28;20017;-79
2021/05/20 02:21:09;;;;;;;64.53;42.85;;;9.20;99.90;;;;;;5053547;28;20021;-79
2021/05/20 02:23:35;;;;;;;72.78;47.28;;;9.20;99.90;;;;;;5053989;28;20392;-79
2021/05/20 02:26:00;;;;;;;79.28;49.95;;;9.20;99.90;;;;;;5053417;28;20056;-79
2021/05/20 02:28:26;;;;;;;77.10;46.40;;;9.30;99.90;;;;;;5069687;28;20021;-79
2021/05/20 02:30:52;;;;;;;84.38;48.72;;;9.30;99.90;;;;;;5052711;28;20025;-79
2021/05/20 02:33:17;;;;;;;67.82;43.30;;;9.30;99.90;;;;;;5052549;28;20036;-79
2021/05/20 02:35:43;;;;;;;78.75;47.85;;;9.30;99.90;;;;;;5054874;28;20476;-79
2021/05/20 02:38:08;;;;;;;76.22;44.75;;;9.30;99.90;;;;;;5071487;28;20438;-79
2021/05/20 02:40:35;;;;;;;76.50;44.67;;;9.30;99.90;;;;;;5053660;28;20017;-79
2021/05/20 02:43:02;;;;;;;76.18;42.60;;;9.20;99.90;;;;;;5053258;28;20035;-79
2021/05/20 02:45:28;;;;;;;82.75;45.45;;;9.20;99.90;;;;;;5053829;28;20396;-79
2021/05/20 02:47:54;;;;;;;77.22;42.42;;;9.20;99.90;;;;;;5052674;28;20095;-79
2021/05/20 02:50:22;;;;;;;83.63;43.85;;;9.20;99.90;;;;;;5052339;28;20495;-79
2021/05/20 02:52:48;;;;;;;77.45;45.40;;;9.20;99.90;;;;;;5054570;28;20479;-79
2021/05/20 02:55:16;;;;;;;81.25;43.20;;;9.20;99.90;;;;;;5054717;28;20373;-79
2021/05/20 02:57:44;;;;;;;78.00;45.28;;;9.20;99.90;;;;;;5052370;28;20017;-79
2021/05/20 03:00:10;;;;;;;66.63;40.65;;;9.20;99.90;;;;;;5054446;28;20372;-79
2021/05/20 03:02:36;;;;;;;79.65;44.47;;;9.20;99.90;;;;;;5064580;28;20021;-79
2021/05/20 03:05:02;;;;;;;73.43;42.85;;;9.20;99.90;;;;;;5052469;28;20028;-79
2021/05/20 03:07:28;;;;;;;75.13;42.67;;;9.20;99.90;;;;;;5052348;28;20036;-79
2021/05/20 03:09:53;;;;;;;88.47;45.80;;;9.20;99.90;;;;;;5054247;28;20380;-79
2021/05/20 03:12:19;;;;;;;76.40;42.17;;;9.20;99.90;;;;;;5055963;28;20023;-79
2021/05/20 03:14:44;;;;;;;76.68;42.83;;;9.20;99.90;;;;;;5052204;28;20380;-79
2021/05/20 03:17:12;;;;;;;73.15;38.95;;;9.20;99.90;;;;;;5054247;28;20128;-79
2021/05/20 03:19:39;;;;;;;75.65;36.58;;;9.20;99.90;;;;;;5053786;28;20410;-79
2021/05/20 03:22:06;;;;;;;78.90;38.22;;;9.20;99.90;;;;;;5057472;28;20021;-79
2021/05/20 03:24:31;;;;;;;59.75;34.03;;;9.20;99.90;;;;;;5058365;28;20031;-79
2021/05/20 03:26:57;;;;;;;83.20;42.30;;;9.20;99.90;;;;;;5056381;28;20028;-79
2021/05/20 03:29:22;;;;;;;79.97;45.17;;;9.30;99.90;;;;;;5056262;28;20104;-79
2021/05/20 03:31:48;;;;;;;70.72;40.28;;;9.30;99.90;;;;;;5056311;28;20025;-79
2021/05/20 03:34:13;;;;;;;67.15;37.75;;;9.20;99.90;;;;;;5055300;28;20017;-79
2021/05/20 03:36:39;;;;;;;60.90;34.15;;;9.10;99.90;;;;;;5059886;28;20036;-79
2021/05/20 03:39:05;;;;;;;77.55;38.83;;;9.10;99.90;;;;;;5072579;28;20392;-79
2021/05/20 03:41:30;;;;;;;66.15;37.78;;;9.10;99.90;;;;;;5058136;28;20044;-79
2021/05/20 03:43:56;;;;;;;77.38;40.03;;;9.10;99.90;;;;;;5056160;28;20108;-79
2021/05/20 03:46:21;;;;;;;77.80;40.22;;;9.10;99.90;;;;;;5071286;28;20021;-79
2021/05/20 03:48:47;;;;;;;98.40;39.03;;;9.00;99.90;;;;;;5056076;28;20495;-79
2021/05/20 03:51:13;;;;;;;71.97;38.08;;;9.00;99.90;;;;;;5054948;28;20065;-79
2021/05/20 03:53:38;;;;;;;75.55;38.80;;;9.00;99.90;;;;;;5059709;28;20017;-79
2021/05/20 03:56:04;;;;;;;83.95;42.33;;;9.00;99.90;;;;;;5056824;28;20070;-79
2021/05/20 03:58:30;;;;;;;78.18;39.95;;;8.90;99.90;;;;;;5057911;28;20380;-79
2021/05/20 04:00:56;;;;;;;76.43;38.95;;;8.90;99.90;;;;;;5056262;28;20384;-79
2021/05/20 04:03:25;;;;;;;80.68;39.40;;;8.90;99.90;;;;;;5055756;28;20102;-79
2021/05/20 04:05:58;;;;;;;;;;;9.00;99.90;;;;;;5055575;28;20082;-79
2021/05/20 04:08:24;;;;;;;72.80;36.17;;;9.00;99.90;;;;;;5054533;28;20303;-79
2021/05/20 04:10:51;;;;;;;82.25;36.03;;;8.90;99.90;;;;;;5059063;28;20095;-79
2021/05/20 04:13:29;;;;;;;73.07;34.53;;;9.00;99.90;;;;;;5056503;28;20475;-79
2021/05/20 04:15:55;;;;;;;67.68;33.25;;;9.10;99.90;;;;;;5056277;28;20361;-78
2021/05/20 04:18:21;;;;;;;70.32;34.92;;;9.10;99.90;;;;;;5055802;28;20028;-78
2021/05/20 04:20:48;;;;;;;67.60;33.05;;;9.10;99.90;;;;;;5057528;28;20024;-78
2021/05/20 04:23:14;;;;;;;70.30;31.05;;;9.20;99.90;;;;;;5058218;28;20025;-78
2021/05/20 04:25:40;;;;;;;82.25;32.55;;;9.20;99.90;;;;;;5055644;28;20496;-79
2021/05/20 04:28:05;;;;;;;71.78;32.03;;;9.20;99.90;;;;;;5056450;28;20050;-79
2021/05/20 04:30:31;;;;;;;78.18;34.85;;;9.20;99.90;;;;;;5054481;28;20042;-79
2021/05/20 04:32:57;;;;;;;80.85;33.55;;;9.20;99.90;;;;;;5054088;28;20031;-79
2021/05/20 04:35:22;;;;;;;75.88;35.45;;;9.30;99.90;;;;;;5053868;28;20100;-79
2021/05/20 04:37:48;;;;;;;80.45;33.47;;;9.30;99.90;;;;;;5056302;28;20139;-79
2021/05/20 04:40:13;;;;;;;77.53;31.45;;;9.30;99.90;;;;;;5057919;28;20499;-79
2021/05/20 04:42:39;;;;;;;71.65;31.10;;;9.30;99.90;;;;;;5055420;28;20036;-79
2021/05/20 04:45:05;;;;;;;69.32;31.55;;;9.40;99.90;;;;;;5055957;28;20020;-79
2021/05/20 04:47:31;;;;;;;73.40;33.58;;;9.50;99.90;;;;;;5053382;28;20021;-79
2021/05/20 04:49:56;;;;;;;75.05;34.28;;;9.50;99.90;;;;;;5054381;28;20062;-79
2021/05/20 04:52:22;;;;;;;67.40;31.65;;;9.50;99.90;;;;;;5053639;28;20464;-79
2021/05/20 04:54:47;;;;;;;68.70;33.55;;;9.50;99.90;;;;;;5056093;28;20376;-79
2021/05/20 04:57:13;;;;;;;69.18;31.35;;;9.60;99.90;;;;;;5056214;28;20383;-79
2021/05/20 04:59:38;;;;;;;67.90;30.00;;;9.60;99.90;;;;;;5055025;28;20020;-79
2021/05/20 05:02:05;;;;;;;53.25;26.67;;;9.70;99.90;;;;;;5055894;28;20025;-79
2021/05/20 05:04:30;;;;;;;75.47;36.00;;;9.70;99.90;;;;;;5054184;28;20020;-79
2021/05/20 05:06:56;;;;;;;80.03;37.63;;;9.80;99.90;;;;;;5053958;28;20476;-79
2021/05/20 05:09:21;;;;;;;73.90;36.40;;;9.80;99.90;;;;;;5052179;28;20021;-79
2021/05/20 05:11:47;;;;;;;70.50;35.63;;;9.80;99.90;;;;;;5055706;28;20520;-79
2021/05/20 05:14:12;;;;;;;69.10;36.00;;;9.90;99.90;;;;;;5057200;28;20021;-79
2021/05/20 05:16:38;;;;;;;61.10;31.98;;;9.90;99.90;;;;;;5054766;28;20388;-79
2021/05/20 05:19:03;;;;;;;79.45;41.50;;;9.90;99.90;;;;;;5055548;28;20380;-79
2021/05/20 05:21:29;;;;;;;77.55;40.25;;;9.90;99.90;;;;;;5055282;28;20491;-79
2021/05/20 05:23:54;;;;;;;69.30;37.72;;;9.80;99.90;;;;;;5055065;28;20032;-79
2021/05/20 05:26:22;;;;;;;84.05;41.55;;;9.90;99.90;;;;;;5054663;28;20360;-81
2021/05/20 05:28:48;;;;;;;80.53;41.15;;;9.80;99.90;;;;;;5055728;28;20048;-79
2021/05/20 05:31:16;;;;;;;82.22;40.35;;;9.70;99.90;;;;;;5055834;28;20158;-79
2021/05/20 05:33:42;;;;;;;66.47;36.00;;;9.70;99.90;;;;;;5055136;28;20021;-79
2021/05/20 05:36:07;;;;;;;68.93;35.33;;;9.80;99.90;;;;;;5056108;28;20094;-79
2021/05/20 05:38:33;;;;;;;74.28;38.47;;;9.90;99.90;;;;;;5072859;28;20099;-79
2021/05/20 05:40:59;;;;;;;74.15;39.67;;;9.90;99.90;;;;;;5073121;28;20085;-79
2021/05/20 05:43:24;;;;;;;78.53;40.65;;;9.80;99.90;;;;;;5073100;28;20024;-79
2021/05/20 05:45:50;;;;;;;69.75;39.00;;;9.80;99.90;;;;;;5073231;28;20112;-79
2021/05/20 05:48:16;;;;;;;88.07;39.60;;;9.80;99.90;;;;;;5073355;28;20055;-79
2021/05/20 05:50:41;;;;;;;65.32;35.30;;;9.60;99.90;;;;;;5072260;28;20030;-79
2021/05/20 05:53:07;;;;;;;65.10;31.45;;;9.70;99.90;;;;;;5088984;28;20497;-78
2021/05/20 05:55:33;;;;;;;68.20;36.97;;;9.70;99.90;;;;;;5073346;28;20436;-79
2021/05/20 05:57:59;;;;;;;73.05;38.40;;;9.70;99.90;;;;;;5073320;28;20032;-79
2021/05/20 06:00:25;;;;;;;60.50;34.40;;;9.60;99.90;;;;;;5073031;28;20097;-78
2021/05/20 06:02:51;;;;;;;73.55;36.58;;;9.70;99.90;;;;;;5072993;28;20033;-78
2021/05/20 06:05:18;;;;;;;111.45;38.53;;;9.70;99.90;;;;;;5073028;28;20020;-78
2021/05/20 06:07:44;;;;;;;64.38;35.85;;;9.70;99.90;;;;;;5073301;28;20016;-79
2021/05/20 06:10:11;;;;;;;61.97;31.08;;;9.70;99.90;;;;;;5072621;28;20023;-78
2021/05/20 06:12:37;;;;;;;69.15;36.65;;;9.80;99.90;;;;;;5072392;28;20099;-78
2021/05/20 06:15:05;;;;;;;68.40;36.05;;;9.80;99.90;;;;;;5072671;28;20044;-78
2021/05/20 06:17:31;;;;;;;85.78;39.88;;;9.70;99.90;;;;;;5072462;28;20023;-80
2021/05/20 06:19:57;;;;;;;78.70;39.15;;;9.80;99.90;;;;;;5071486;28;20016;-81
2021/05/20 06:22:23;;;;;;;71.07;36.33;;;9.80;99.90;;;;;;5072726;28;20066;-84
2021/05/20 06:24:48;;;;;;;99.55;40.83;;;9.90;99.90;;;;;;5071269;28;20476;-80
2021/05/20 06:27:14;;;;;;;77.45;37.70;;;9.80;99.90;;;;;;5071679;28;20039;-79
2021/05/20 06:29:39;;;;;;;74.82;38.05;;;9.90;99.90;;;;;;5071712;28;20025;-78
2021/05/20 06:32:05;;;;;;;84.55;40.03;;;10.00;99.90;;;;;;5072572;28;20438;-78
2021/05/20 06:34:31;;;;;;;72.03;38.20;;;10.00;99.90;;;;;;5071789;28;20028;-78
2021/05/20 06:36:59;;;;;;;68.85;38.22;;;10.00;99.90;;;;;;5072626;28;20048;-78
2021/05/20 06:39:24;;;;;;;74.07;39.60;;;10.00;99.90;;;;;;5073098;28;20021;-78
2021/05/20 06:41:50;;;;;;;114.88;46.17;;;10.10;99.90;;;;;;5072878;28;20027;-78
2021/05/20 06:44:15;;;;;;;86.18;45.92;;;10.10;99.90;;;;;;5072503;28;20033;-78
2021/05/20 06:46:41;;;;;;;72.45;43.60;;;10.10;99.90;;;;;;5072048;28;20025;-78
2021/05/20 06:49:08;;;;;;;77.28;42.63;;;10.00;99.90;;;;;;5072352;28;20058;-78
2021/05/20 06:51:34;;;;;;;86.07;47.65;;;10.20;99.90;;;;;;5071054;28;20025;-78
2021/05/20 06:54:00;;;;;;;76.30;43.17;;;10.20;99.90;;;;;;5071069;28;20036;-78
2021/05/20 06:56:28;;;;;;;90.55;44.33;;;10.10;99.90;;;;;;5076119;28;20303;-78
2021/05/20 07:01:48;;;;;;;88.30;45.13;;;10.20;99.90;;;;;;5038844;28;20052;-78
2021/05/20 07:04:14;;;;;;;82.93;44.25;;;10.00;99.90;;;;;;5076152;28;20017;-78
2021/05/20 07:06:40;;;;;;;80.63;41.55;;;9.90;99.90;;;;;;5075825;28;20025;-79
2021/05/20 07:09:06;;;;;;;82.75;42.67;;;9.90;99.90;;;;;;5074512;28;20028;-79
2021/05/20 07:11:32;;;;;;;72.13;41.10;;;10.00;99.90;;;;;;5073689;28;20033;-79
2021/05/20 07:13:58;;;;;;;70.22;38.25;;;10.10;99.90;;;;;;5076169;28;20099;-79
2021/05/20 07:16:24;;;;;;;63.80;37.28;;;10.10;99.90;;;;;;5075439;28;20036;-79
2021/05/20 07:18:49;;;;;;;66.15;35.83;;;10.20;99.90;;;;;;5074373;28;20434;-79
2021/05/20 07:21:15;;;;;;;70.15;37.95;;;10.20;99.90;;;;;;5076072;28;20035;-79
2021/05/20 07:23:41;;;;;;;64.03;36.97;;;10.20;99.90;;;;;;5075769;28;20029;-79
2021/05/20 07:26:06;;;;;;;55.90;34.85;;;10.30;99.90;;;;;;5075786;28;20071;-79
2021/05/20 07:28:32;;;;;;;55.53;34.80;;;10.30;99.90;;;;;;5075999;28;20032;-79
2021/05/20 07:30:58;;;;;;;58.03;34.78;;;10.30;99.90;;;;;;5075877;28;20468;-79
2021/05/20 07:33:24;;;;;;;56.97;35.95;;;10.30;99.90;;;;;;5075752;28;20476;-79
2021/05/20 07:35:50;;;;;;;59.08;35.38;;;10.20;99.90;;;;;;5057949;28;20043;-78
2021/05/20 07:38:16;;;;;;;54.80;33.97;;;10.30;99.90;;;;;;5053721;28;20048;-79
2021/05/20 07:40:41;;;;;;;53.33;32.58;;;10.40;99.90;;;;;;5055753;28;20110;-79
2021/05/20 07:43:07;;;;;;;42.40;29.50;;;10.50;99.90;;;;;;5075553;28;20021;-79
2021/05/20 07:45:33;;;;;;;44.67;30.35;;;10.80;99.90;;;;;;5075794;28;20028;-79
2021/05/20 07:47:58;;;;;;;36.78;27.08;;;10.90;99.90;;;;;;5074150;28;20082;-79
2021/05/20 07:50:24;;;;;;;43.80;29.15;;;11.00;99.90;;;;;;5074266;28;20027;-79
2021/05/20 07:52:50;;;;;;;39.95;28.25;;;11.10;99.90;;;;;;5075641;28;20021;-79
2021/05/20 07:55:16;;;;;;;42.45;29.02;;;11.00;99.90;;;;;;5075307;28;20067;-79
2021/05/20 07:57:41;;;;;;;39.05;26.98;;;11.00;99.90;;;;;;5075477;28;20025;-79
2021/05/20 08:00:10;;;;;;;41.15;28.08;;;11.00;99.90;;;;;;5075385;28;20017;-79
2021/05/20 08:02:44;;;;;;;46.75;32.03;;;11.10;99.90;;;;;;5073264;28;20020;-79
2021/05/20 08:05:15;;;;;;;43.08;30.48;;;11.10;99.90;;;;;;5073632;28;20028;-79
2021/05/20 08:08:04;;;;;;;38.60;26.63;;;11.10;99.90;;;;;;5075371;28;20023;-79
2021/05/20 08:10:48;;;;;;;44.28;28.17;;;11.20;99.90;;;;;;5074024;28;20369;-79
2021/05/20 08:13:14;;;;;;;41.50;28.05;;;11.30;99.90;;;;;;5075143;28;20118;-79
2021/05/20 08:15:40;;;;;;;41.45;29.30;;;11.50;99.90;;;;;;5075056;28;20479;-79
2021/05/20 08:18:05;;;;;;;37.42;27.77;;;11.50;99.90;;;;;;5072853;28;20032;-79
2021/05/20 08:20:31;;;;;;;36.63;25.40;;;11.50;99.90;;;;;;5071736;28;20559;-79
2021/05/20 08:22:57;;;;;;;33.47;24.70;;;11.60;99.90;;;;;;5074888;28;20508;-79
2021/05/20 08:25:23;;;;;;;28.00;22.23;;;11.80;99.90;;;;;;5074813;28;20581;-79
2021/05/20 08:27:48;;;;;;;29.45;23.52;;;11.80;99.90;;;;;;5074848;28;20020;-79
2021/05/20 08:30:15;;;;;;;28.13;22.98;;;11.80;99.90;;;;;;5073651;28;20031;-79
2021/05/20 08:32:41;;;;;;;27.70;22.15;;;11.60;99.90;;;;;;5074772;28;20016;-79
2021/05/20 08:35:07;;;;;;;33.30;24.73;;;11.50;99.90;;;;;;5073547;28;20025;-79
2021/05/20 08:37:34;;;;;;;30.98;24.10;;;11.50;99.90;;;;;;5073170;28;20083;-79
2021/05/20 08:40:00;;;;;;;27.55;20.95;;;11.50;99.90;;;;;;5074696;28;20017;-79
2021/05/20 08:42:26;;;;;;;29.63;22.30;;;11.50;99.90;;;;;;5073394;28;20028;-79
2021/05/20 08:44:51;;;;;;;29.77;21.42;;;11.60;99.90;;;;;;5073342;28;20024;-79
2021/05/20 08:47:18;;;;;;;23.65;19.35;;;11.70;99.90;;;;;;5074361;28;20032;-79
2021/05/20 08:49:47;;;;;;;27.80;20.70;;;11.80;99.90;;;;;;5072564;28;20464;-79
2021/05/20 08:52:13;;;;;;;28.92;22.55;;;11.80;99.90;;;;;;5072828;28;20031;-79
2021/05/20 08:54:39;;;;;;;26.95;20.67;;;11.80;99.90;;;;;;5074349;28;20016;-79
2021/05/20 08:57:05;;;;;;;27.08;20.88;;;11.80;99.90;;;;;;5072984;28;20025;-79
2021/05/20 08:59:31;;;;;;;23.77;19.15;;;11.90;99.90;;;;;;5073008;28;20028;-79
2021/05/20 09:01:58;;;;;;;24.33;19.58;;;12.00;99.90;;;;;;5072897;28;20036;-79
2021/05/20 09:04:27;;;;;;;24.95;19.55;;;12.00;99.90;;;;;;5074305;28;20375;-79
2021/05/20 09:06:56;;;;;;;26.10;21.92;;;12.00;99.90;;;;;;5071980;28;20029;-79
2021/05/20 09:09:25;;;;;;;32.43;23.10;;;11.90;99.90;;;;;;5074008;28;20021;-79
2021/05/20 09:11:58;;;;;;;27.87;20.83;;;11.80;99.90;;;;;;5071949;28;20308;-79
2021/05/20 09:14:32;;;;;;;36.05;24.08;;;11.90;99.90;;;;;;5072738;28;20108;-79
2021/05/20 09:17:18;;;;;;;33.40;24.55;;;11.90;99.90;;;;;;5072100;28;20396;-79
2021/05/20 09:19:57;;;;;;;35.95;25.48;;;12.00;99.90;;;;;;5073184;28;20593;-79
2021/05/20 09:22:23;;;;;;;38.58;24.98;;;12.00;99.90;;;;;;5073909;28;20032;-79
2021/05/20 09:24:51;;;;;;;35.08;24.88;;;12.10;99.90;;;;;;5073601;28;20467;-79
2021/05/20 09:27:23;;;;;;;36.25;25.55;;;12.30;99.90;;;;;;5072827;28;20025;-80
2021/05/20 09:30:13;;;;;;;33.00;24.63;;;12.50;99.90;;;;;;5071935;28;20021;-79
2021/05/20 09:32:49;;;;;;;35.10;24.75;;;12.60;99.90;;;;;;5068093;28;20510;-79
2021/05/20 09:35:17;;;;;;;33.30;24.92;;;12.70;99.90;;;;;;5071543;28;20048;-79
2021/05/20 09:37:46;;;;;;;30.20;24.05;;;12.70;99.90;;;;;;5072997;28;20040;-79
2021/05/20 09:40:12;;;;;;;41.20;30.38;;;12.80;99.90;;;;;;5073038;28;20026;-79
2021/05/20 09:42:38;;;;;;;49.65;35.50;;;12.80;99.90;;;;;;5073223;28;20111;-80
2021/05/20 09:45:12;;;;;;;43.72;32.08;;;12.90;99.90;;;;;;5072727;28;20016;-79
2021/05/20 09:47:37;;;;;;;46.38;31.63;;;12.90;99.90;;;;;;5071077;28;20017;-79
2021/05/20 09:50:22;;;;;;;45.53;32.92;;;12.90;99.90;;;;;;5072829;28;20017;-79
2021/05/20 09:52:48;;;;;;;50.05;33.83;;;13.20;99.90;;;;;;5072363;28;20017;-79
2021/05/20 09:55:23;;;;;;;43.63;32.17;;;13.60;99.90;;;;;;5072614;28;20021;-80
2021/05/20 09:57:49;;;;;;;47.72;35.55;;;14.00;99.90;;;;;;5072816;28;20095;-80
2021/05/20 10:00:17;;;;;;;46.17;34.10;;;14.20;99.90;;;;;;5072668;28;20081;-80
2021/05/20 10:02:44;;;;;;;53.45;39.40;;;14.20;99.20;;;;;;5071465;28;20473;-80
2021/05/20 10:05:19;;;;;;;62.63;45.08;;;14.20;99.10;;;;;;5072399;28;20017;-79
2021/05/20 10:07:45;;;;;;;68.75;48.20;;;14.20;98.70;;;;;;5072565;28;20023;-80
2021/05/20 10:10:11;;;;;;;68.35;48.80;;;14.70;99.10;;;;;;5072408;28;20021;-80
2021/05/20 10:12:39;;;;;;;60.70;44.60;;;16.20;96.20;;;;;;5073027;28;20391;-79
2021/05/20 10:15:07;;;;;;;53.05;39.30;;;17.50;92.80;;;;;;5072605;28;20095;-80
2021/05/20 10:17:34;;;;;;;49.58;36.45;;;18.70;90.70;;;;;;5072931;28;20051;-80
2021/05/20 10:20:01;;;;;;;52.00;40.95;;;20.30;88.00;;;;;;5073062;28;20013;-80
2021/05/20 10:22:27;;;;;;;47.15;37.60;;;21.10;76.40;;;;;;5072914;28;20078;-79
2021/05/20 10:24:53;;;;;;;44.38;35.53;;;20.60;75.50;;;;;;5072896;28;20032;-80
2021/05/20 10:27:18;;;;;;;48.78;39.88;;;19.80;77.10;;;;;;5072876;28;20032;-79
2021/05/20 10:29:44;;;;;;;45.17;36.28;;;19.10;78.30;;;;;;5073686;28;20101;-79
2021/05/20 10:32:10;;;;;;;43.55;35.92;;;19.70;79.30;;;;;;5077194;28;20467;-79
2021/05/20 10:34:36;;;;;;;35.70;30.38;;;20.40;75.40;;;;;;5077107;28;20048;-79
2021/05/20 10:37:06;;;;;;;31.73;27.60;;;21.30;73.20;;;;;;5076000;28;20126;-79
2021/05/20 10:39:32;;;;;;;32.03;27.88;;;21.80;71.10;;;;;;5076502;28;20028;-79
2021/05/20 10:41:58;;;;;;;39.75;33.60;;;23.30;68.80;;;;;;5076460;28;20017;-79
2021/05/20 10:44:25;;;;;;;39.92;34.67;;;24.10;61.40;;;;;;5075161;28;20043;-79
2021/05/20 10:46:56;;;;;;;38.83;33.20;;;24.50;58.60;;;;;;5076218;28;20032;-79
2021/05/20 10:49:53;;;;;;;31.88;27.77;;;24.50;57.40;;;;;;5076206;28;20070;-80
2021/05/20 10:52:43;;;;;;;39.10;32.70;;;24.70;57.50;;;;;;5089168;28;20059;-80
2021/05/20 10:55:10;;;;;;;36.53;32.05;;;24.90;56.90;;;;;;5090692;28;20020;-79
2021/05/20 10:57:56;;;;;;;34.67;29.85;;;25.10;55.80;;;;;;5073429;28;20035;-79
2021/05/20 11:00:30;;;;;;;35.63;30.40;;;25.00;53.30;;;;;;5072790;28;20384;-80
2021/05/20 11:02:58;;;;;;;30.83;25.45;;;25.40;53.90;;;;;;5088837;28;20070;-80
2021/05/20 11:05:51;;;;;;;27.25;23.33;;;25.70;53.40;;;;;;5074617;28;20119;-80
2021/05/20 11:08:26;;;;;;;32.28;28.75;;;26.10;51.40;;;;;;5073327;28;20387;-80
2021/05/20 11:10:51;;;;;;;30.63;26.52;;;25.90;50.00;;;;;;5075779;28;20031;-80
2021/05/20 11:13:35;;;;;;;24.50;21.52;;;25.70;51.10;;;;;;5074394;28;20024;-80
2021/05/20 11:16:27;;;;;;;22.58;19.67;;;25.90;51.40;;;;;;5089316;28;20020;-80
2021/05/20 11:18:53;;;;;;;26.45;23.70;;;27.00;50.40;;;;;;5073022;28;20047;-80
2021/05/20 11:21:19;;;;;;;22.88;20.58;;;27.10;47.50;;;;;;5075563;28;20438;-80
2021/05/20 11:23:45;;;;;;;25.35;22.67;;;27.00;47.30;;;;;;5074335;28;20107;-80
2021/05/20 11:26:22;;;;;;;20.85;18.17;;;27.20;47.50;;;;;;5076023;28;20029;-80
2021/05/20 11:28:57;;;;;;;19.08;17.05;;;27.10;48.00;;;;;;5076214;28;20017;-84
2021/05/20 11:31:25;;;;;;;20.77;18.65;;;27.70;47.70;;;;;;5074708;28;20399;-80
2021/05/20 11:34:09;;;;;;;17.88;15.90;;;27.80;44.70;;;;;;5076068;28;20027;-81
2021/05/20 11:36:36;;;;;;;16.20;14.60;;;27.80;46.00;;;;;;5074435;28;20072;-81
2021/05/20 11:39:06;;;;;;;18.08;16.27;;;27.20;46.20;;;;;;5074426;28;20450;-80
2021/05/20 11:41:33;;;;;;;22.42;20.23;;;27.00;47.80;;;;;;5073993;28;20028;-80
2021/05/20 11:44:01;;;;;;;20.73;18.52;;;26.50;47.80;;;;;;5074542;28;20035;-81
2021/05/20 11:46:26;;;;;;;15.57;13.98;;;26.00;48.30;;;;;;5074310;28;20828;-80
2021/05/20 11:49:03;;;;;;;16.42;14.88;;;25.20;49.70;;;;;;5075669;28;20116;-80
2021/05/20 11:51:46;;;;;;;18.65;16.00;;;24.80;49.70;;;;;;5074909;28;20099;-80
2021/05/20 11:54:15;;;;;;;15.15;13.65;;;24.00;51.10;;;;;;5074162;28;20099;-80
2021/05/20 11:57:09;;;;;;;21.70;19.50;;;22.90;53.70;;;;;;5088181;28;20113;-80
2021/05/20 11:59:38;;;;;;;19.33;17.52;;;22.10;55.50;;;;;;5071447;28;20060;-80
2021/05/20 12:02:09;;;;;;;21.60;19.30;;;21.30;58.20;;;;;;5075030;28;20107;-80
2021/05/20 12:04:34;;;;;;;19.67;17.63;;;20.70;59.20;;;;;;5074924;28;20021;-79
2021/05/20 12:07:01;;;;;;;15.48;13.88;;;20.10;61.50;;;;;;5074608;28;20020;-80
2021/05/20 12:09:27;;;;;;;15.77;14.05;;;19.80;62.40;;;;;;5074644;28;20024;-80
2021/05/20 12:11:53;;;;;;;15.80;14.27;;;20.10;63.20;;;;;;5074649;28;20027;-80
2021/05/20 12:14:45;;;;;;;17.10;14.52;;;20.50;61.30;;;;;;5073469;28;20017;-80
2021/05/20 12:17:16;;;;;;;13.25;11.85;;;20.60;60.50;;;;;;5070840;28;20049;-82
2021/05/20 12:19:52;;;;;;;12.75;11.45;;;20.60;60.40;;;;;;5075297;28;20028;-82
2021/05/20 12:22:29;;;;;;;11.05;8.95;;;20.50;60.00;;;;;;5075073;28;20102;-82
2021/05/20 12:24:56;;;;;;;13.15;11.75;;;20.10;59.50;;;;;;5074917;28;20025;-81
2021/05/20 12:27:26;;;;;;;10.88;9.77;;;20.20;61.30;;;;;;5074851;28;20027;-82
2021/05/20 12:30:13;;;;;;;11.75;9.98;;;20.10;60.00;;;;;;5074964;28;20020;-83
2021/05/20 12:32:41;;;;;;;15.00;13.57;;;20.10;61.40;;;;;;5074191;28;20395;-82
2021/05/20 12:35:31;;;;;;;13.98;12.68;;;20.10;61.30;;;;;;5073505;28;20025;-83
2021/05/20 12:38:20;;;;;;;13.57;12.27;;;19.80;62.00;;;;;;5074608;28;20415;-82
2021/05/20 12:40:52;;;;;;;13.68;12.23;;;19.50;62.80;;;;;;5074587;28;20483;-82